Historyczne dane pomiarowe

Dodano dane terminowe – wersja testowa.

Dane z okresu 1951-2019

Wersja bazy: 1.34 [2019-03-16, lista zmian], aktualizacja planowana na 2019-04-15

Dane meteo z obszaru Polski uzyskane na podstawie danych udostępnionych przez Instytut Meteorologii i Gospodarki Wodnej – Państwowy Instytut Badawczy.

 

Wybierz Datę:    

       

TemperaturaWilgotnośćWiatrCiśnienieOpadyŚniegCzas trwania zjawisk
 Stacja t tx tn tng RH VA  wxwx mslp ppp RRR   cm mm wxwxwxwxwxwxwx
1974-03-18 7.6 13.0 1.3- 74.3- 6.3 3.3---- 0.2------------
1974-03-19 10.8 16.9 6.9- 66.3- 6.3 3.0---- 0.0------------
1974-03-20 10.7 19.9 1.4- 65.5- 5.0 3.7---- 0.0------------
1974-03-21 15.9 23.0 9.0- 42.0- 0.3 3.0---- 0.0------------
1974-03-22 9.7 17.9 1.2- 72.0- 1.7 1.0---- 0.0------------
1974-03-23 8.0 13.4 4.4- 61.5- 4.3 4.7---- 0.0------------
1974-03-24 5.4 10.0 2.4- 65.5- 3.7 6.0---- 0.0------------
1974-03-25 4.8 13.4 -1.6- 65.5- 1.3 3.3---- 0.0------------
1974-03-26 6.3 17.3 -1.6- 69.5- 1.7 1.3---- 0.0------------
1974-03-27 4.5 13.4 -3.8- 63.0- 0.7 1.7---- 0.0------------
1974-03-28 5.6 12.6 -3.6- 47.3- 0.0 3.7---- 0.0------------
1974-03-29 9.0 17.9 -1.6- 47.5- 1.7 2.3---- 0.0------------
1974-03-30 10.5 17.7 3.8- 61.3- 7.3 1.3---- 0.0------------
1974-03-31 10.3 19.2 1.8- 63.3- 4.7 2.3---- 0.0------------
1974-04-01 8.1 16.2 -0.9- 55.5- 3.7 3.0---- 0.0------------
1974-04-02 7.1 13.4 -0.4- 58.3- 0.7 1.3---- 0.0------------
1974-04-03 6.8 14.7 -0.6- 56.8- 0.3 2.7---- 0.0------------
1974-04-04 5.9 14.4 -2.6- 58.5- 2.7 3.7---- 0.0------------
1974-04-05 5.5 13.1 -3.9- 62.8- 0.3 1.7---- 0.0------------
1974-04-06 6.1 14.4 -4.2- 66.0- 5.3 1.7---- 0.0------------
1974-04-07 8.3 11.7 6.6- 78.0- 4.3 2.7---- 0.0------------
1974-04-08 7.5 11.4 3.2- 62.0- 5.0 3.0---- 1.1------------
1974-04-09 9.1 17.4 2.4- 65.0- 4.0 2.3---- 0.0------------
1974-04-10 10.4 19.1 1.9- 58.5- 3.0 2.7---- 0.0------------
1974-04-11 13.5 19.9 5.7- 39.5- 0.3 6.0---- 0.0------------
1974-04-12 12.4 19.6 1.7- 48.0- 3.3 4.7---- 0.0------------
1974-04-13 2.7 14.2 -0.9- 65.3- 6.7 3.7---- 0.0------------
1974-04-14 0.6 6.1 -9.8- 52.5- 6.0 3.3---- 0.0------------
1974-04-15 2.7 6.8 -6.8- 53.5- 5.7 2.3---- 0.0------------
1974-04-16 1.8 6.9 -8.3- 69.8- 5.0 2.0---- 0.0------------
215.0 ms

 

Źródłem pochodzenia danych jest Instytut Meteorologii i Gospodarki Wodnej – Państwowy Instytut Badawczy. Dane Instytutu Meteorologii i Gospodarki Wodnej – Państwowego Instytutu Badawczego zostały przetworzone.

Dane źródłowe można odnaleźć na stronie https://dane.imgw.pl